sensor_id;sensor_type;location;lat;lon;timestamp;pressure;altitude;pressure_sealevel;temperature;humidity
64933;BME280;51446;53.850;10.662;2023-03-14T00:01:23;98699.84;;;10.62;100.00
64933;BME280;51446;53.850;10.662;2023-03-14T00:03:49;98695.59;;;10.56;100.00
64933;BME280;51446;53.850;10.662;2023-03-14T00:06:15;98686.06;;;10.50;100.00
64933;BME280;51446;53.850;10.662;2023-03-14T00:08:42;98674.75;;;10.48;100.00
64933;BME280;51446;53.850;10.662;2023-03-14T00:11:18;98666.84;;;10.50;100.00
64933;BME280;51446;53.850;10.662;2023-03-14T00:13:47;98671.31;;;10.45;100.00
64933;BME280;51446;53.850;10.662;2023-03-14T00:16:13;98666.31;;;10.29;100.00
64933;BME280;51446;53.850;10.662;2023-03-14T00:18:40;98665.44;;;10.30;100.00
64933;BME280;51446;53.850;10.662;2023-03-14T00:21:07;98660.41;;;10.16;100.00
64933;BME280;51446;53.850;10.662;2023-03-14T00:23:34;98664.94;;;10.06;100.00
64933;BME280;51446;53.850;10.662;2023-03-14T00:26:00;98667.34;;;10.20;100.00
64933;BME280;51446;53.850;10.662;2023-03-14T00:28:27;98681.53;;;10.04;100.00
64933;BME280;51446;53.850;10.662;2023-03-14T00:30:52;98700.91;;;9.94;100.00
64933;BME280;51446;53.850;10.662;2023-03-14T00:33:17;98694.69;;;10.01;100.00
64933;BME280;51446;53.850;10.662;2023-03-14T00:35:42;98689.22;;;10.16;100.00
64933;BME280;51446;53.850;10.662;2023-03-14T00:38:08;98689.28;;;10.13;100.00
64933;BME280;51446;53.850;10.662;2023-03-14T00:40:33;98690.19;;;10.11;100.00
64933;BME280;51446;53.850;10.662;2023-03-14T00:42:58;98689.31;;;10.10;100.00
64933;BME280;51446;53.850;10.662;2023-03-14T00:45:23;98678.72;;;10.18;100.00
64933;BME280;51446;53.850;10.662;2023-03-14T00:47:49;98672.47;;;10.27;100.00
64933;BME280;51446;53.850;10.662;2023-03-14T00:50:14;98677.91;;;10.14;100.00
64933;BME280;51446;53.850;10.662;2023-03-14T00:52:39;98668.09;;;10.27;100.00
64933;BME280;51446;53.850;10.662;2023-03-14T00:55:05;98684.03;;;10.13;100.00
64933;BME280;51446;53.850;10.662;2023-03-14T00:57:30;98669.00;;;10.24;100.00
64933;BME280;51446;53.850;10.662;2023-03-14T00:59:55;98669.00;;;10.24;100.00
64933;BME280;51446;53.850;10.662;2023-03-14T01:02:21;98656.81;;;10.22;100.00
64933;BME280;51446;53.850;10.662;2023-03-14T01:04:49;98656.81;;;10.22;100.00
64933;BME280;51446;53.850;10.662;2023-03-14T01:07:15;98651.78;;;10.10;100.00
64933;BME280;51446;53.850;10.662;2023-03-14T01:09:40;98643.22;;;10.01;100.00
64933;BME280;51446;53.850;10.662;2023-03-14T01:12:05;98644.03;;;10.03;100.00
64933;BME280;51446;53.850;10.662;2023-03-14T01:14:30;98646.84;;;9.93;100.00
64933;BME280;51446;53.850;10.662;2023-03-14T01:16:56;98652.88;;;9.96;100.00
64933;BME280;51446;53.850;10.662;2023-03-14T01:19:26;98677.25;;;10.01;100.00
64933;BME280;51446;53.850;10.662;2023-03-14T01:21:52;98668.53;;;9.99;100.00
64933;BME280;51446;53.850;10.662;2023-03-14T01:24:17;98671.97;;;10.03;100.00
64933;BME280;51446;53.850;10.662;2023-03-14T01:26:42;98681.34;;;10.18;100.00
64933;BME280;51446;53.850;10.662;2023-03-14T01:29:07;98679.50;;;10.24;100.00
64933;BME280;51446;53.850;10.662;2023-03-14T01:31:33;98683.78;;;10.29;100.00
64933;BME280;51446;53.850;10.662;2023-03-14T01:33:58;98682.16;;;10.21;100.00
64933;BME280;51446;53.850;10.662;2023-03-14T01:36:24;98682.78;;;10.39;100.00
64933;BME280;51446;53.850;10.662;2023-03-14T01:38:49;98681.97;;;10.32;100.00
64933;BME280;51446;53.850;10.662;2023-03-14T01:41:20;98682.63;;;10.47;100.00
64933;BME280;51446;53.850;10.662;2023-03-14T01:43:46;98677.56;;;10.37;100.00
64933;BME280;51446;53.850;10.662;2023-03-14T01:46:24;98663.44;;;10.46;100.00
64933;BME280;51446;53.850;10.662;2023-03-14T01:49:01;98648.50;;;10.50;100.00
64933;BME280;51446;53.850;10.662;2023-03-14T01:51:56;98635.34;;;10.54;100.00
64933;BME280;51446;53.850;10.662;2023-03-14T01:54:43;98624.78;;;10.57;100.00
64933;BME280;51446;53.850;10.662;2023-03-14T01:57:17;98616.34;;;10.40;100.00
64933;BME280;51446;53.850;10.662;2023-03-14T02:00:00;98592.53;;;10.54;100.00
64933;BME280;51446;53.850;10.662;2023-03-14T02:02:30;98597.97;;;10.45;100.00
64933;BME280;51446;53.850;10.662;2023-03-14T02:04:56;98607.19;;;10.64;100.00
64933;BME280;51446;53.850;10.662;2023-03-14T02:07:30;98620.53;;;10.52;100.00
64933;BME280;51446;53.850;10.662;2023-03-14T02:09:59;98625.59;;;10.61;100.00
64933;BME280;51446;53.850;10.662;2023-03-14T02:12:26;98627.31;;;10.62;100.00
64933;BME280;51446;53.850;10.662;2023-03-14T02:14:52;98621.19;;;10.63;100.00
64933;BME280;51446;53.850;10.662;2023-03-14T02:17:18;98616.94;;;10.57;100.00
64933;BME280;51446;53.850;10.662;2023-03-14T02:20:10;98612.66;;;10.52;100.00
64933;BME280;51446;53.850;10.662;2023-03-14T02:22:41;98616.19;;;10.51;100.00
64933;BME280;51446;53.850;10.662;2023-03-14T02:28:00;98591.09;;;10.37;100.00
64933;BME280;51446;53.850;10.662;2023-03-14T02:30:29;98569.41;;;10.28;100.00
64933;BME280;51446;53.850;10.662;2023-03-14T02:32:58;98572.78;;;10.33;100.00
64933;BME280;51446;53.850;10.662;2023-03-14T02:35:34;98566.75;;;10.29;100.00
64933;BME280;51446;53.850;10.662;2023-03-14T02:40:46;98575.47;;;10.30;100.00
64933;BME280;51446;53.850;10.662;2023-03-14T02:43:11;98560.69;;;10.25;100.00
64933;BME280;51446;53.850;10.662;2023-03-14T02:45:43;98572.19;;;10.20;100.00
64933;BME280;51446;53.850;10.662;2023-03-14T02:48:21;98569.56;;;10.20;100.00
64933;BME280;51446;53.850;10.662;2023-03-14T02:50:48;98571.28;;;10.21;100.00
64933;BME280;51446;53.850;10.662;2023-03-14T02:53:17;98570.44;;;10.19;100.00
64933;BME280;51446;53.850;10.662;2023-03-14T02:55:50;98561.03;;;10.09;100.00
64933;BME280;51446;53.850;10.662;2023-03-14T02:58:16;98576.63;;;10.15;100.00
64933;BME280;51446;53.850;10.662;2023-03-14T03:00:41;98574.19;;;10.05;100.00
64933;BME280;51446;53.850;10.662;2023-03-14T03:03:07;98589.78;;;10.12;100.00
64933;BME280;51446;53.850;10.662;2023-03-14T03:05:32;98586.31;;;10.10;100.00
64933;BME280;51446;53.850;10.662;2023-03-14T03:07:57;98579.44;;;10.02;100.00
64933;BME280;51446;53.850;10.662;2023-03-14T03:10:23;98575.91;;;10.05;100.00
64933;BME280;51446;53.850;10.662;2023-03-14T03:12:49;98585.47;;;10.09;100.00
64933;BME280;51446;53.850;10.662;2023-03-14T03:15:14;98589.03;;;10.03;100.00
64933;BME280;51446;53.850;10.662;2023-03-14T03:17:39;98577.81;;;9.97;100.00
64933;BME280;51446;53.850;10.662;2023-03-14T03:20:05;98583.88;;;9.99;100.00
64933;BME280;51446;53.850;10.662;2023-03-14T03:22:34;98583.84;;;10.02;100.00
64933;BME280;51446;53.850;10.662;2023-03-14T03:25:00;98574.97;;;10.09;100.00
64933;BME280;51446;53.850;10.662;2023-03-14T03:27:25;98560.25;;;10.03;100.00
64933;BME280;51446;53.850;10.662;2023-03-14T03:29:50;98566.34;;;10.05;100.00
64933;BME280;51446;53.850;10.662;2023-03-14T03:32:16;98560.31;;;10.00;100.00
64933;BME280;51446;53.850;10.662;2023-03-14T03:34:41;98575.81;;;10.11;100.00
64933;BME280;51446;53.850;10.662;2023-03-14T03:37:06;98568.78;;;10.15;100.00
64933;BME280;51446;53.850;10.662;2023-03-14T03:39:32;98555.91;;;10.01;100.00
64933;BME280;51446;53.850;10.662;2023-03-14T03:41:57;98554.84;;;10.11;100.00
64933;BME280;51446;53.850;10.662;2023-03-14T03:44:22;98551.53;;;10.03;100.00
64933;BME280;51446;53.850;10.662;2023-03-14T03:46:47;98542.81;;;10.01;100.00
64933;BME280;51446;53.850;10.662;2023-03-14T03:49:13;98531.47;;;10.02;100.00
64933;BME280;51446;53.850;10.662;2023-03-14T03:51:39;98526.97;;;10.10;100.00
64933;BME280;51446;53.850;10.662;2023-03-14T03:54:05;98535.66;;;10.11;100.00
64933;BME280;51446;53.850;10.662;2023-03-14T03:56:30;98521.81;;;10.04;100.00
64933;BME280;51446;53.850;10.662;2023-03-14T03:58:56;98519.84;;;10.17;100.00
64933;BME280;51446;53.850;10.662;2023-03-14T04:01:21;98520.81;;;10.13;100.00
64933;BME280;51446;53.850;10.662;2023-03-14T04:03:47;98506.84;;;10.11;100.00
64933;BME280;51446;53.850;10.662;2023-03-14T04:06:13;98506.13;;;10.02;100.00
64933;BME280;51446;53.850;10.662;2023-03-14T04:08:38;98500.06;;;10.00;100.00
64933;BME280;51446;53.850;10.662;2023-03-14T04:11:05;98507.75;;;10.10;100.00
64933;BME280;51446;53.850;10.662;2023-03-14T04:13:30;98508.81;;;9.99;100.00
64933;BME280;51446;53.850;10.662;2023-03-14T04:15:56;98507.16;;;9.94;100.00
64933;BME280;51446;53.850;10.662;2023-03-14T04:18:22;98518.41;;;10.00;100.00
64933;BME280;51446;53.850;10.662;2023-03-14T04:20:54;98503.56;;;9.99;100.00
64933;BME280;51446;53.850;10.662;2023-03-14T04:23:19;98511.50;;;9.96;100.00
64933;BME280;51446;53.850;10.662;2023-03-14T04:25:45;98488.16;;;9.84;100.00
64933;BME280;51446;53.850;10.662;2023-03-14T04:28:10;98496.84;;;9.86;100.00
64933;BME280;51446;53.850;10.662;2023-03-14T04:30:35;98478.56;;;9.84;100.00
64933;BME280;51446;53.850;10.662;2023-03-14T04:33:01;98477.00;;;9.74;100.00
64933;BME280;51446;53.850;10.662;2023-03-14T04:35:26;98482.16;;;9.79;100.00
64933;BME280;51446;53.850;10.662;2023-03-14T04:37:52;98481.25;;;9.80;100.00
64933;BME280;51446;53.850;10.662;2023-03-14T04:40:17;98469.19;;;9.72;100.00
64933;BME280;51446;53.850;10.662;2023-03-14T04:42:43;98461.31;;;9.72;100.00
64933;BME280;51446;53.850;10.662;2023-03-14T04:45:08;98458.47;;;9.85;100.00
64933;BME280;51446;53.850;10.662;2023-03-14T04:47:34;98461.97;;;9.85;100.00
64933;BME280;51446;53.850;10.662;2023-03-14T04:49:59;98448.84;;;9.87;100.00
64933;BME280;51446;53.850;10.662;2023-03-14T04:52:25;98465.19;;;10.00;100.00
64933;BME280;51446;53.850;10.662;2023-03-14T04:54:51;98451.25;;;9.98;100.00
64933;BME280;51446;53.850;10.662;2023-03-14T04:57:16;98445.13;;;9.99;100.00
64933;BME280;51446;53.850;10.662;2023-03-14T04:59:41;98461.75;;;9.96;100.00
64933;BME280;51446;53.850;10.662;2023-03-14T05:02:07;98454.03;;;9.90;100.00
64933;BME280;51446;53.850;10.662;2023-03-14T05:04:32;98448.94;;;9.81;100.00
64933;BME280;51446;53.850;10.662;2023-03-14T05:06:59;98459.38;;;9.82;100.00
64933;BME280;51446;53.850;10.662;2023-03-14T05:09:24;98447.22;;;9.80;100.00
64933;BME280;51446;53.850;10.662;2023-03-14T05:11:49;98442.81;;;9.82;100.00
64933;BME280;51446;53.850;10.662;2023-03-14T05:14:14;98453.03;;;9.96;100.00
64933;BME280;51446;53.850;10.662;2023-03-14T05:16:40;98438.13;;;9.99;100.00
64933;BME280;51446;53.850;10.662;2023-03-14T05:19:05;98439.13;;;9.92;100.00
64933;BME280;51446;53.850;10.662;2023-03-14T05:21:30;98434.63;;;10.00;100.00
64933;BME280;51446;53.850;10.662;2023-03-14T05:23:56;98429.34;;;10.02;100.00
64933;BME280;51446;53.850;10.662;2023-03-14T05:26:21;98423.97;;;10.08;100.00
64933;BME280;51446;53.850;10.662;2023-03-14T05:28:46;98421.25;;;10.14;100.00
64933;BME280;51446;53.850;10.662;2023-03-14T05:31:11;98412.59;;;10.11;100.00
64933;BME280;51446;53.850;10.662;2023-03-14T05:33:37;98429.31;;;10.03;100.00
64933;BME280;51446;53.850;10.662;2023-03-14T05:36:02;98442.09;;;10.19;100.00
64933;BME280;51446;53.850;10.662;2023-03-14T05:38:27;98442.31;;;10.08;100.00
64933;BME280;51446;53.850;10.662;2023-03-14T05:40:52;98454.38;;;10.15;100.00
64933;BME280;51446;53.850;10.662;2023-03-14T05:43:18;98455.31;;;10.14;100.00
64933;BME280;51446;53.850;10.662;2023-03-14T05:45:43;98457.97;;;10.11;100.00
64933;BME280;51446;53.850;10.662;2023-03-14T05:48:11;98444.28;;;9.98;100.00
64933;BME280;51446;53.850;10.662;2023-03-14T05:50:36;98435.81;;;9.82;100.00
64933;BME280;51446;53.850;10.662;2023-03-14T05:53:02;98443.53;;;9.90;100.00
64933;BME280;51446;53.850;10.662;2023-03-14T05:55:27;98446.44;;;9.75;100.00
64933;BME280;51446;53.850;10.662;2023-03-14T05:57:53;98448.25;;;9.72;100.00
64933;BME280;51446;53.850;10.662;2023-03-14T06:00:19;98466.03;;;9.52;100.00
64933;BME280;51446;53.850;10.662;2023-03-14T06:02:44;98472.59;;;9.23;100.00
64933;BME280;51446;53.850;10.662;2023-03-14T06:05:09;98471.16;;;9.05;100.00
64933;BME280;51446;53.850;10.662;2023-03-14T06:07:35;98465.13;;;8.98;100.00
64933;BME280;51446;53.850;10.662;2023-03-14T06:10:00;98462.63;;;8.92;100.00
64933;BME280;51446;53.850;10.662;2023-03-14T06:12:25;98459.28;;;8.82;100.00
64933;BME280;51446;53.850;10.662;2023-03-14T06:14:50;98451.59;;;8.73;100.00
64933;BME280;51446;53.850;10.662;2023-03-14T06:17:16;98448.13;;;8.70;100.00
64933;BME280;51446;53.850;10.662;2023-03-14T06:19:41;98449.00;;;8.72;100.00
64933;BME280;51446;53.850;10.662;2023-03-14T06:22:07;98451.59;;;8.72;100.00
64933;BME280;51446;53.850;10.662;2023-03-14T06:24:32;98455.88;;;8.77;100.00
64933;BME280;51446;53.850;10.662;2023-03-14T06:26:57;98455.97;;;8.70;100.00
64933;BME280;51446;53.850;10.662;2023-03-14T06:29:22;98455.94;;;8.71;100.00
64933;BME280;51446;53.850;10.662;2023-03-14T06:31:48;98466.41;;;8.70;100.00
64933;BME280;51446;53.850;10.662;2023-03-14T06:34:13;98460.31;;;8.72;100.00
64933;BME280;51446;53.850;10.662;2023-03-14T06:36:38;98461.19;;;8.71;100.00
64933;BME280;51446;53.850;10.662;2023-03-14T06:39:04;98466.47;;;8.66;100.00
64933;BME280;51446;53.850;10.662;2023-03-14T06:41:29;98465.34;;;8.86;100.00
64933;BME280;51446;53.850;10.662;2023-03-14T06:43:54;98462.72;;;8.86;100.00
64933;BME280;51446;53.850;10.662;2023-03-14T06:46:19;98468.69;;;8.94;100.00
64933;BME280;51446;53.850;10.662;2023-03-14T06:48:45;98470.38;;;8.98;100.00
64933;BME280;51446;53.850;10.662;2023-03-14T06:51:10;98474.03;;;8.87;100.00
64933;BME280;51446;53.850;10.662;2023-03-14T06:53:35;98464.59;;;8.76;100.00
64933;BME280;51446;53.850;10.662;2023-03-14T06:56:01;98468.06;;;8.77;100.00
64933;BME280;51446;53.850;10.662;2023-03-14T06:58:26;98489.78;;;8.82;100.00
64933;BME280;51446;53.850;10.662;2023-03-14T07:00:52;98484.31;;;9.00;100.00
64933;BME280;51446;53.850;10.662;2023-03-14T07:03:18;98486.16;;;8.92;100.00
64933;BME280;51446;53.850;10.662;2023-03-14T07:05:43;98497.47;;;8.91;100.00
64933;BME280;51446;53.850;10.662;2023-03-14T07:08:09;98500.03;;;8.96;100.00
64933;BME280;51446;53.850;10.662;2023-03-14T07:10:34;98497.41;;;8.96;100.00
64933;BME280;51446;53.850;10.662;2023-03-14T07:12:59;98495.59;;;9.01;100.00
64933;BME280;51446;53.850;10.662;2023-03-14T07:15:25;98499.91;;;9.05;100.00
64933;BME280;51446;53.850;10.662;2023-03-14T07:17:50;98499.03;;;9.05;100.00
64933;BME280;51446;53.850;10.662;2023-03-14T07:20:16;98496.09;;;9.25;100.00
64933;BME280;51446;53.850;10.662;2023-03-14T07:22:41;98492.50;;;9.35;100.00
64933;BME280;51446;53.850;10.662;2023-03-14T07:25:07;98487.91;;;9.46;100.00
64933;BME280;51446;53.850;10.662;2023-03-14T07:27:37;98510.56;;;9.49;100.00
64933;BME280;51446;53.850;10.662;2023-03-14T07:30:03;98503.63;;;9.48;100.00
64933;BME280;51446;53.850;10.662;2023-03-14T07:32:28;98514.91;;;9.50;100.00
64933;BME280;51446;53.850;10.662;2023-03-14T07:34:54;98516.81;;;9.40;100.00
64933;BME280;51446;53.850;10.662;2023-03-14T07:37:19;98521.09;;;9.44;100.00
64933;BME280;51446;53.850;10.662;2023-03-14T07:39:44;98517.63;;;9.44;100.00
64933;BME280;51446;53.850;10.662;2023-03-14T07:42:09;98524.34;;;9.59;100.00
64933;BME280;51446;53.850;10.662;2023-03-14T07:44:36;98525.22;;;9.59;100.00
64933;BME280;51446;53.850;10.662;2023-03-14T07:47:01;98512.09;;;9.62;100.00
64933;BME280;51446;53.850;10.662;2023-03-14T07:49:27;98518.00;;;9.72;100.00
64933;BME280;51446;53.850;10.662;2023-03-14T07:51:52;98516.28;;;9.72;100.00
64933;BME280;51446;53.850;10.662;2023-03-14T07:54:17;98515.47;;;9.69;100.00
64933;BME280;51446;53.850;10.662;2023-03-14T07:56:42;98511.78;;;9.79;100.00
64933;BME280;51446;53.850;10.662;2023-03-14T07:59:08;98523.94;;;9.83;100.00
64933;BME280;51446;53.850;10.662;2023-03-14T08:01:33;98520.50;;;9.81;100.00
64933;BME280;51446;53.850;10.662;2023-03-14T08:03:58;98524.47;;;10.02;100.00
64933;BME280;51446;53.850;10.662;2023-03-14T08:06:24;98507.53;;;10.22;100.00
64933;BME280;51446;53.850;10.662;2023-03-14T08:08:49;98512.97;;;10.10;100.00
64933;BME280;51446;53.850;10.662;2023-03-14T08:11:14;98508.31;;;10.25;100.00
64933;BME280;51446;53.850;10.662;2023-03-14T08:13:40;98507.38;;;10.30;100.00
64933;BME280;51446;53.850;10.662;2023-03-14T08:16:05;98515.25;;;10.28;100.00
64933;BME280;51446;53.850;10.662;2023-03-14T08:18:31;98508.53;;;10.15;100.00
64933;BME280;51446;53.850;10.662;2023-03-14T08:20:56;98516.28;;;10.19;100.00
64933;BME280;51446;53.850;10.662;2023-03-14T08:23:23;98519.66;;;10.26;100.00
64933;BME280;51446;53.850;10.662;2023-03-14T08:25:49;98510.34;;;10.11;100.00
64933;BME280;51446;53.850;10.662;2023-03-14T08:28:15;98501.63;;;10.11;100.00
64933;BME280;51446;53.850;10.662;2023-03-14T08:30:40;98516.19;;;10.24;100.00
64933;BME280;51446;53.850;10.662;2023-03-14T08:33:06;98510.91;;;10.29;100.00
64933;BME280;51446;53.850;10.662;2023-03-14T08:35:31;98517.78;;;10.36;100.00
64933;BME280;51446;53.850;10.662;2023-03-14T08:37:56;98522.78;;;10.47;100.00
64933;BME280;51446;53.850;10.662;2023-03-14T08:40:22;98515.75;;;10.50;100.00
64933;BME280;51446;53.850;10.662;2023-03-14T08:42:47;98509.00;;;10.37;100.00
64933;BME280;51446;53.850;10.662;2023-03-14T08:45:14;98493.16;;;10.45;100.00
64933;BME280;51446;53.850;10.662;2023-03-14T08:47:41;98513.31;;;10.82;100.00
64933;BME280;51446;53.850;10.662;2023-03-14T08:50:08;98510.06;;;11.11;100.00
64933;BME280;51446;53.850;10.662;2023-03-14T08:52:34;98500.31;;;11.16;100.00
64933;BME280;51446;53.850;10.662;2023-03-14T08:54:59;98498.09;;;11.37;100.00
64933;BME280;51446;53.850;10.662;2023-03-14T08:57:25;98500.31;;;12.53;100.00
64933;BME280;51446;53.850;10.662;2023-03-14T08:59:54;98495.66;;;12.92;100.00
64933;BME280;51446;53.850;10.662;2023-03-14T09:02:20;98493.16;;;13.46;100.00
64933;BME280;51446;53.850;10.662;2023-03-14T09:04:46;98496.56;;;12.61;100.00
64933;BME280;51446;53.850;10.662;2023-03-14T09:07:11;98498.25;;;12.32;100.00
64933;BME280;51446;53.850;10.662;2023-03-14T09:09:36;98487.09;;;12.26;100.00
64933;BME280;51446;53.850;10.662;2023-03-14T09:12:02;98490.84;;;11.81;100.00
64933;BME280;51446;53.850;10.662;2023-03-14T09:14:27;98475.31;;;11.73;100.00
64933;BME280;51446;53.850;10.662;2023-03-14T09:16:52;98502.81;;;11.58;100.00
64933;BME280;51446;53.850;10.662;2023-03-14T09:19:18;98503.59;;;11.62;100.00
64933;BME280;51446;53.850;10.662;2023-03-14T09:21:43;98499.28;;;11.59;100.00
64933;BME280;51446;53.850;10.662;2023-03-14T09:24:08;98517.19;;;11.42;100.00
64933;BME280;51446;53.850;10.662;2023-03-14T09:26:35;98514.50;;;11.45;100.00
64933;BME280;51446;53.850;10.662;2023-03-14T09:29:00;98520.19;;;11.28;100.00
64933;BME280;51446;53.850;10.662;2023-03-14T09:31:25;98515.47;;;11.05;100.00
64933;BME280;51446;53.850;10.662;2023-03-14T09:33:50;98519.16;;;10.94;100.00
64933;BME280;51446;53.850;10.662;2023-03-14T09:36:16;98522.19;;;10.76;100.00
64933;BME280;51446;53.850;10.662;2023-03-14T09:38:41;98508.34;;;10.69;100.00
64933;BME280;51446;53.850;10.662;2023-03-14T09:41:16;98516.03;;;10.77;100.00
64933;BME280;51446;53.850;10.662;2023-03-14T09:43:43;98514.34;;;10.76;100.00
64933;BME280;51446;53.850;10.662;2023-03-14T09:46:10;98517.59;;;10.86;100.00
64933;BME280;51446;53.850;10.662;2023-03-14T09:48:36;98525.41;;;10.90;100.00
64933;BME280;51446;53.850;10.662;2023-03-14T09:51:05;98522.31;;;10.70;100.00
64933;BME280;51446;53.850;10.662;2023-03-14T09:53:40;98523.31;;;11.05;100.00
64933;BME280;51446;53.850;10.662;2023-03-14T09:56:25;98520.16;;;10.90;100.00
64933;BME280;51446;53.850;10.662;2023-03-14T09:58:55;98524.88;;;11.14;100.00
64933;BME280;51446;53.850;10.662;2023-03-14T10:01:39;98531.16;;;11.06;100.00
64933;BME280;51446;53.850;10.662;2023-03-14T10:04:07;98539.53;;;11.22;100.00
64933;BME280;51446;53.850;10.662;2023-03-14T10:06:35;98537.28;;;11.05;100.00
64933;BME280;51446;53.850;10.662;2023-03-14T10:09:00;98551.81;;;11.20;100.00
64933;BME280;51446;53.850;10.662;2023-03-14T10:11:25;98557.78;;;10.88;100.00
64933;BME280;51446;53.850;10.662;2023-03-14T10:14:04;98556.47;;;10.67;100.00
64933;BME280;51446;53.850;10.662;2023-03-14T10:16:33;98566.44;;;10.48;100.00
64933;BME280;51446;53.850;10.662;2023-03-14T10:19:05;98572.91;;;10.27;100.00
64933;BME280;51446;53.850;10.662;2023-03-14T10:21:37;98591.81;;;9.96;100.00
64933;BME280;51446;53.850;10.662;2023-03-14T10:26:36;98639.25;;;9.76;100.00
64933;BME280;51446;53.850;10.662;2023-03-14T10:29:08;98679.53;;;7.99;100.00
64933;BME280;51446;53.850;10.662;2023-03-14T10:31:57;98707.13;;;6.03;100.00
64933;BME280;51446;53.850;10.662;2023-03-14T10:34:31;98725.28;;;5.80;100.00
64933;BME280;51446;53.850;10.662;2023-03-14T10:37:04;98726.00;;;5.30;100.00
64933;BME280;51446;53.850;10.662;2023-03-14T10:39:36;98748.47;;;5.17;100.00
64933;BME280;51446;53.850;10.662;2023-03-14T10:42:21;98758.63;;;4.77;100.00
64933;BME280;51446;53.850;10.662;2023-03-14T10:45:05;98770.44;;;4.38;100.00
64933;BME280;51446;53.850;10.662;2023-03-14T10:47:45;98799.84;;;4.35;100.00
64933;BME280;51446;53.850;10.662;2023-03-14T10:50:27;98807.78;;;4.55;100.00
64933;BME280;51446;53.850;10.662;2023-03-14T10:52:53;98822.44;;;4.45;100.00
64933;BME280;51446;53.850;10.662;2023-03-14T10:55:19;98828.34;;;4.33;100.00
64933;BME280;51446;53.850;10.662;2023-03-14T10:57:44;98830.88;;;4.24;100.00
64933;BME280;51446;53.850;10.662;2023-03-14T11:00:18;98846.56;;;4.37;100.00
64933;BME280;51446;53.850;10.662;2023-03-14T11:03:08;98855.16;;;4.29;100.00
64933;BME280;51446;53.850;10.662;2023-03-14T11:05:56;98878.88;;;3.87;100.00
64933;BME280;51446;53.850;10.662;2023-03-14T11:11:13;98890.88;;;3.78;100.00
64933;BME280;51446;53.850;10.662;2023-03-14T11:13:50;98910.97;;;3.95;100.00
64933;BME280;51446;53.850;10.662;2023-03-14T11:21:59;98929.75;;;3.78;100.00
64933;BME280;51446;53.850;10.662;2023-03-14T11:27:26;98946.06;;;3.70;100.00
64933;BME280;51446;53.850;10.662;2023-03-14T11:32:52;98969.34;;;3.67;100.00
64933;BME280;51446;53.850;10.662;2023-03-14T11:35:35;98986.00;;;3.82;100.00
64933;BME280;51446;53.850;10.662;2023-03-14T11:40:39;98996.19;;;3.70;100.00
64933;BME280;51446;53.850;10.662;2023-03-14T11:45:36;99004.22;;;3.89;100.00
64933;BME280;51446;53.850;10.662;2023-03-14T11:48:20;99017.06;;;3.79;100.00
64933;BME280;51446;53.850;10.662;2023-03-14T11:50:52;99023.31;;;3.92;100.00
64933;BME280;51446;53.850;10.662;2023-03-14T11:55:51;99044.88;;;3.90;100.00
64933;BME280;51446;53.850;10.662;2023-03-14T11:58:27;99045.69;;;3.87;100.00
64933;BME280;51446;53.850;10.662;2023-03-14T12:00:57;99058.72;;;3.92;100.00
64933;BME280;51446;53.850;10.662;2023-03-14T12:03:36;99069.34;;;4.09;100.00
64933;BME280;51446;53.850;10.662;2023-03-14T12:08:59;99075.50;;;4.15;100.00
64933;BME280;51446;53.850;10.662;2023-03-14T12:11:36;99077.41;;;4.29;100.00
64933;BME280;51446;53.850;10.662;2023-03-14T12:14:17;99087.69;;;4.21;100.00
64933;BME280;51446;53.850;10.662;2023-03-14T12:16:46;99087.59;;;4.13;100.00
64933;BME280;51446;53.850;10.662;2023-03-14T12:24:34;99097.34;;;4.31;100.00
64933;BME280;51446;53.850;10.662;2023-03-14T12:27:02;99113.91;;;4.40;100.00
64933;BME280;51446;53.850;10.662;2023-03-14T12:29:28;99113.09;;;4.44;100.00
64933;BME280;51446;53.850;10.662;2023-03-14T12:40:12;99131.47;;;4.61;100.00
64933;BME280;51446;53.850;10.662;2023-03-14T12:42:59;99146.38;;;4.73;100.00
64933;BME280;51446;53.850;10.662;2023-03-14T12:45:36;99141.31;;;4.85;100.00
64933;BME280;51446;53.850;10.662;2023-03-14T12:48:24;99135.44;;;5.00;100.00
64933;BME280;51446;53.850;10.662;2023-03-14T12:50:54;99151.13;;;5.09;100.00
64933;BME280;51446;53.850;10.662;2023-03-14T12:59:37;99171.59;;;4.83;100.00
64933;BME280;51446;53.850;10.662;2023-03-14T13:04:35;99179.25;;;4.74;100.00
64933;BME280;51446;53.850;10.662;2023-03-14T13:07:02;99181.00;;;4.73;100.00
64933;BME280;51446;53.850;10.662;2023-03-14T13:11:54;99198.41;;;4.82;100.00
64933;BME280;51446;53.850;10.662;2023-03-14T13:14:21;99192.53;;;4.95;100.00
64933;BME280;51446;53.850;10.662;2023-03-14T13:16:49;99201.31;;;5.05;100.00
64933;BME280;51446;53.850;10.662;2023-03-14T13:19:19;99202.31;;;5.16;100.00
64933;BME280;51446;53.850;10.662;2023-03-14T13:21:45;99206.75;;;5.25;100.00
64933;BME280;51446;53.850;10.662;2023-03-14T13:24:25;99217.97;;;5.21;100.00
64933;BME280;51446;53.850;10.662;2023-03-14T13:26:55;99221.41;;;5.20;100.00
64933;BME280;51446;53.850;10.662;2023-03-14T13:29:24;99234.47;;;5.25;100.00
64933;BME280;51446;53.850;10.662;2023-03-14T13:31:52;99229.94;;;5.10;100.00
64933;BME280;51446;53.850;10.662;2023-03-14T13:34:19;99241.22;;;5.10;100.00
64933;BME280;51446;53.850;10.662;2023-03-14T13:36:44;99236.91;;;5.12;100.00
64933;BME280;51446;53.850;10.662;2023-03-14T13:39:16;99264.50;;;5.02;100.00
64933;BME280;51446;53.850;10.662;2023-03-14T13:41:45;99269.53;;;4.90;100.00
64933;BME280;51446;53.850;10.662;2023-03-14T13:44:16;99280.06;;;5.01;100.00
64933;BME280;51446;53.850;10.662;2023-03-14T13:46:45;99262.59;;;4.91;100.00